Time;durP1;ratioP1;P1;durP2;ratioP2;P2;SDS_P1;SDS_P2;PMS_P1;PMS_P2;Temp;Humidity;BMP_temperature;BMP_pressure;BME280_temperature;BME280_humidity;BME280_pressure;Samples;Min_cycle;Max_cycle;Signal;HPM_P1;HPM_P2
2021/05/21 00:02:12;;;;;;;;;9.00;8.00;;;;;9.19;77.42;99768.41;3606421;39;13964;-57
2021/05/21 00:04:39;;;;;;;;;11.00;7.75;;;;;9.36;77.08;99771.00;3613738;39;14006;-53
2021/05/21 00:07:07;;;;;;;;;10.50;9.00;;;;;9.56;74.99;99774.41;3606566;39;14047;-53
2021/05/21 00:09:34;;;;;;;;;12.00;11.00;;;;;9.18;78.31;99762.16;3607353;39;14485;-54
2021/05/21 00:12:02;;;;;;;;;10.00;7.50;;;;;9.09;77.64;99767.16;3606328;39;14008;-56
2021/05/21 00:14:30;;;;;;;;;9.50;9.00;;;;;8.84;81.06;99757.75;3606640;39;14670;-55
2021/05/21 00:16:57;;;;;;;;;9.25;9.25;;;;;8.66;81.62;99761.41;3607146;39;14027;-57
2021/05/21 00:19:25;;;;;;;;;7.00;7.00;;;;;8.46;82.44;99757.09;3606058;39;14208;-55
2021/05/21 00:21:52;;;;;;;;;9.00;9.00;;;;;8.52;82.74;99763.00;3605241;39;14055;-56
2021/05/21 00:24:19;;;;;;;;;12.75;10.00;;;;;8.51;83.10;99761.25;3606613;39;14549;-56
2021/05/21 00:26:50;;;;;;;;;9.50;7.75;;;;;8.40;84.04;99766.31;3607373;39;14038;-54
2021/05/21 00:29:18;;;;;;;;;8.50;6.25;;;;;8.49;81.02;99763.16;3608670;39;10582;-55
2021/05/21 00:31:45;;;;;;;;;8.33;8.33;;;;;8.45;82.80;99772.31;3606191;39;13956;-54
2021/05/21 00:34:12;;;;;;;;;9.00;7.67;;;;;8.47;81.89;99761.50;3605626;39;10469;-55
2021/05/21 00:36:41;;;;;;;;;9.00;9.00;;;;;8.59;82.69;99766.22;3606347;39;10274;-54
2021/05/21 00:39:08;;;;;;;;;8.25;7.25;;;;;8.59;83.54;99758.19;3606213;39;10728;-55
2021/05/21 00:41:35;;;;;;;;;10.25;9.75;;;;;8.56;84.14;99764.56;3605312;39;10670;-54
2021/05/21 00:44:03;;;;;;;;;11.33;9.00;;;;;8.55;84.45;99760.16;3605723;39;10641;-56
2021/05/21 00:46:30;;;;;;;;;13.00;9.00;;;;;8.34;84.31;99748.72;3603218;39;10271;-55
2021/05/21 00:48:57;;;;;;;;;11.00;9.00;;;;;8.13;84.46;99753.34;3605822;39;10368;-54
2021/05/21 00:51:25;;;;;;;;;12.67;9.67;;;;;8.32;83.26;99755.09;3605376;39;14006;-55
2021/05/21 00:53:53;;;;;;;;;9.50;9.50;;;;;7.97;84.37;99755.06;3609375;39;11650;-54
2021/05/21 00:56:21;;;;;;;;;11.00;10.00;;;;;8.12;84.96;99759.66;3605006;39;10251;-55
2021/05/21 00:58:48;;;;;;;;;11.00;10.67;;;;;8.19;86.44;99749.53;3605151;39;10094;-56
2021/05/21 01:01:16;;;;;;;;;13.00;10.00;;;;;8.17;86.89;99761.25;3605037;39;10272;-54
2021/05/21 01:03:44;;;;;;;;;14.33;10.67;;;;;8.22;87.41;99759.19;3605909;39;10171;-56
2021/05/21 01:06:13;;;;;;;;;11.00;11.00;;;;;8.16;87.22;99759.47;3606425;39;9893;-53
2021/05/21 01:08:40;;;;;;;;;14.33;10.33;;;;;8.50;86.25;99764.88;3606205;39;10200;-53
2021/05/21 01:11:09;;;;;;;;;10.00;10.00;;;;;8.47;85.82;99766.84;3606354;39;10252;-54
2021/05/21 01:13:37;;;;;;;;;9.67;9.00;;;;;9.01;81.58;99764.91;3608989;39;10311;-54
2021/05/21 01:16:06;;;;;;;;;10.25;10.00;;;;;8.97;82.82;99768.66;3606215;39;10702;-57
2021/05/21 01:18:33;;;;;;;;;11.67;10.67;;;;;8.90;83.25;99760.13;3607915;39;14510;-56
2021/05/21 01:21:01;;;;;;;;;11.00;10.33;;;;;8.76;85.19;99770.69;3605827;39;10370;-54
2021/05/21 01:23:28;;;;;;;;;9.75;9.75;;;;;8.73;84.94;99768.16;3605987;39;10698;-55
2021/05/21 01:25:56;;;;;;;;;10.00;10.00;;;;;8.49;86.25;99763.16;3605511;39;14044;-56
2021/05/21 01:28:23;;;;;;;;;14.50;11.00;;;;;8.46;87.26;99763.31;3605234;39;13994;-55
2021/05/21 01:30:51;;;;;;;;;11.33;10.00;;;;;8.27;87.42;99770.53;3605019;39;14222;-55
2021/05/21 01:33:20;;;;;;;;;11.67;11.67;;;;;8.28;87.95;99758.88;3607257;39;10275;-55
2021/05/21 01:35:48;;;;;;;;;14.75;10.50;;;;;8.01;88.15;99770.03;3605713;39;10804;-55
2021/05/21 01:38:15;;;;;;;;;10.67;10.33;;;;;7.96;89.00;99766.72;3605997;39;10400;-53
2021/05/21 01:40:44;;;;;;;;;13.33;11.67;;;;;7.89;89.96;99768.81;3605745;39;11363;-54
2021/05/21 01:43:12;;;;;;;;;13.67;11.33;;;;;7.95;89.51;99778.31;3605477;39;10245;-55
2021/05/21 01:45:41;;;;;;;;;14.00;10.67;;;;;7.96;88.69;99780.06;3604572;39;10364;-55
2021/05/21 01:48:12;;;;;;;;;15.33;10.00;;;;;7.95;87.91;99772.97;3609524;39;10274;-56
2021/05/21 01:50:40;;;;;;;;;9.67;9.67;;;;;7.87;89.02;99773.38;3606594;39;10385;-56
2021/05/21 01:53:07;;;;;;;;;13.00;11.67;;;;;7.99;89.08;99774.56;3605174;39;10323;-58
2021/05/21 01:55:36;;;;;;;;;8.67;5.33;;;;;8.32;87.33;99773.81;3601562;39;11131;-53
2021/05/21 01:58:04;;;;;;;;;9.33;9.33;;;;;8.32;87.04;99779.16;3605001;39;10288;-54
2021/05/21 02:00:31;;;;;;;;;11.00;10.00;;;;;8.35;85.92;99776.34;3605263;39;10119;-54
2021/05/21 02:02:58;;;;;;;;;13.00;11.67;;;;;8.62;84.90;99781.25;3605816;39;10403;-55
2021/05/21 02:05:26;;;;;;;;;12.33;9.67;;;;;8.43;85.83;99784.03;3607227;39;10870;-55
2021/05/21 02:07:53;;;;;;;;;13.67;13.67;;;;;8.20;87.59;99782.47;3612639;39;10242;-56
2021/05/21 02:10:21;;;;;;;;;13.00;12.33;;;;;8.18;87.71;99781.69;3613557;39;10624;-56
2021/05/21 02:12:48;;;;;;;;;10.00;10.00;;;;;8.20;87.65;99780.66;3606663;39;10487;-57
2021/05/21 02:15:15;;;;;;;;;10.00;10.00;;;;;8.20;87.94;99777.97;3606822;39;10853;-56
2021/05/21 02:17:43;;;;;;;;;10.67;10.00;;;;;8.06;88.64;99781.34;3607589;39;10411;-54
2021/05/21 02:20:12;;;;;;;;;11.00;10.67;;;;;8.17;88.52;99782.63;3606983;39;10380;-55
2021/05/21 02:22:41;;;;;;;;;13.00;9.00;;;;;8.25;87.74;99781.28;3605862;39;10191;-57
2021/05/21 02:25:11;;;;;;;;;10.00;10.00;;;;;8.23;87.74;99791.19;3607086;39;10335;-53
2021/05/21 02:27:39;;;;;;;;;13.00;9.67;;;;;7.93;87.98;99780.22;3606843;39;10249;-56
2021/05/21 02:30:09;;;;;;;;;11.33;10.00;;;;;7.90;88.62;99781.25;3606382;39;10332;-56
2021/05/21 02:32:41;;;;;;;;;12.00;10.00;;;;;7.83;89.29;99789.63;3606605;39;10521;-54
2021/05/21 02:35:11;;;;;;;;;32.00;24.33;;;;;7.96;90.13;99795.25;3614276;39;9785;-56
2021/05/21 02:37:39;;;;;;;;;39.33;32.33;;;;;8.69;86.13;99788.00;3606919;39;10049;-54
2021/05/21 02:40:09;;;;;;;;;21.33;21.33;;;;;8.37;86.59;99782.47;3608727;39;10086;-54
2021/05/21 02:42:37;;;;;;;;;14.33;14.33;;;;;8.29;86.46;99780.22;3607336;39;9958;-53
2021/05/21 02:45:06;;;;;;;;;20.33;18.67;;;;;8.32;86.72;99789.84;3606890;39;9868;-55
2021/05/21 02:47:34;;;;;;;;;27.00;22.00;;;;;8.26;88.03;99788.38;3606366;39;9796;-54
2021/05/21 02:50:02;;;;;;;;;10.67;7.00;;;;;8.57;84.42;99787.69;3607428;39;10405;-53
2021/05/21 02:52:30;;;;;;;;;10.00;9.00;;;;;8.44;85.74;99783.94;3606896;39;10284;-58
2021/05/21 02:54:57;;;;;;;;;10.00;10.00;;;;;8.00;87.71;99781.63;3606827;39;11432;-56
2021/05/21 02:57:25;;;;;;;;;10.67;9.00;;;;;7.74;89.07;99785.63;3607479;39;10315;-56
2021/05/21 02:59:54;;;;;;;;;14.00;11.67;;;;;7.62;90.09;99784.38;3617370;39;10552;-57
2021/05/21 03:02:23;;;;;;;;;13.33;11.67;;;;;7.52;90.09;99788.44;3615751;39;10257;-55
2021/05/21 03:04:53;;;;;;;;;11.67;11.67;;;;;7.30;90.21;99780.56;3617555;39;9943;-55
2021/05/21 03:07:20;;;;;;;;;14.33;11.00;;;;;7.21;91.18;99787.22;3616584;39;9938;-55
2021/05/21 03:09:48;;;;;;;;;11.00;11.00;;;;;7.19;91.57;99791.75;3617299;39;9764;-55
2021/05/21 03:12:15;;;;;;;;;13.00;11.33;;;;;6.97;92.16;99789.16;3616604;39;10135;-53
2021/05/21 03:14:43;;;;;;;;;17.33;13.00;;;;;7.10;91.64;99791.28;3616793;39;9773;-53
2021/05/21 03:17:10;;;;;;;;;12.00;9.67;;;;;7.11;91.72;99790.34;3610719;39;9789;-54
2021/05/21 03:19:38;;;;;;;;;16.00;13.00;;;;;7.40;91.32;99786.34;3609053;39;9785;-55
2021/05/21 03:22:06;;;;;;;;;12.33;10.67;;;;;7.75;90.69;99787.34;3616356;39;9832;-53
2021/05/21 03:24:33;;;;;;;;;14.00;13.00;;;;;7.80;91.27;99795.13;3596078;40;9822;-55
2021/05/21 03:27:01;;;;;;;;;11.67;11.67;;;;;7.57;90.55;99789.09;3596927;39;10028;-55
2021/05/21 03:29:28;;;;;;;;;14.67;12.33;;;;;7.46;90.56;99784.25;3605672;39;9783;-53
2021/05/21 03:31:55;;;;;;;;;14.67;13.00;;;;;7.50;90.15;99784.97;3607546;39;10063;-54
2021/05/21 03:34:23;;;;;;;;;12.33;9.33;;;;;7.64;91.36;99790.53;3615490;39;9782;-54
2021/05/21 03:36:50;;;;;;;;;13.00;11.00;;;;;7.51;91.29;99794.72;3608261;39;9764;-54
2021/05/21 03:39:18;;;;;;;;;12.33;12.33;;;;;7.47;91.41;99787.78;3615052;39;9813;-53
2021/05/21 03:41:46;;;;;;;;;12.33;11.67;;;;;7.30;92.15;99785.91;3616476;39;9809;-54
2021/05/21 03:44:13;;;;;;;;;14.00;12.33;;;;;7.34;92.63;99786.63;3607220;39;9784;-55
2021/05/21 03:46:41;;;;;;;;;11.67;10.00;;;;;7.28;91.60;99786.91;3609835;39;9930;-56
2021/05/21 03:49:08;;;;;;;;;13.67;11.00;;;;;7.43;91.45;99791.56;3617328;39;9746;-54
2021/05/21 03:51:35;;;;;;;;;13.33;11.00;;;;;8.06;90.03;99794.72;3616962;39;9895;-53
2021/05/21 03:54:03;;;;;;;;;9.00;9.00;;;;;8.24;88.28;99805.44;3616032;39;9996;-55
2021/05/21 03:56:30;;;;;;;;;13.67;10.33;;;;;8.13;89.04;99798.81;3616753;39;9790;-55
2021/05/21 03:58:58;;;;;;;;;10.00;9.67;;;;;8.33;88.87;99799.63;3616799;39;10349;-55
2021/05/21 04:01:25;;;;;;;;;10.67;10.00;;;;;8.64;86.91;99798.09;3616660;39;10291;-55
2021/05/21 04:03:55;;;;;;;;;12.00;10.00;;;;;9.27;84.89;99803.66;3616743;39;10783;-55
2021/05/21 04:06:22;;;;;;;;;10.50;10.25;;;;;9.01;84.96;99805.94;3609835;39;14113;-55
2021/05/21 04:08:49;;;;;;;;;7.50;2.25;;;;;9.82;82.63;99814.00;3606436;39;14025;-54
2021/05/21 04:11:17;;;;;;;;;12.25;9.25;;;;;10.37;79.20;99817.16;3606869;39;14202;-55
2021/05/21 04:13:44;;;;;;;;;7.25;7.25;;;;;10.94;76.38;99809.28;3611119;39;14039;-54
2021/05/21 04:16:13;;;;;;;;;8.50;8.00;;;;;10.02;79.03;99814.69;3616927;39;14170;-55
2021/05/21 04:18:41;;;;;;;;;9.00;8.00;;;;;10.61;78.89;99821.09;3616853;39;13978;-56
2021/05/21 04:21:08;;;;;;;;;8.25;8.00;;;;;10.61;78.46;99823.78;3599858;39;13973;-56
2021/05/21 04:23:40;;;;;;;;;9.75;8.25;;;;;10.57;79.02;99822.22;3613585;39;14508;-55
2021/05/21 04:26:07;;;;;;;;;7.50;6.00;;;;;10.27;80.05;99822.19;3616925;39;14172;-56
2021/05/21 04:28:34;;;;;;;;;10.00;8.50;;;;;10.46;79.32;99822.88;3616392;39;14713;-56
2021/05/21 04:31:02;;;;;;;;;11.75;9.00;;;;;10.18;80.93;99828.94;3606366;39;14036;-54
2021/05/21 04:33:29;;;;;;;;;7.50;7.50;;;;;10.56;80.28;99815.16;3606689;39;13973;-54
2021/05/21 04:35:56;;;;;;;;;11.25;8.00;;;;;10.63;78.83;99819.16;3610223;39;13961;-55
2021/05/21 04:38:24;;;;;;;;;10.00;10.00;;;;;10.24;81.77;99816.97;3616436;39;13988;-55
2021/05/21 04:40:51;;;;;;;;;14.00;12.25;;;;;10.58;79.09;99815.91;3615531;39;13957;-54
2021/05/21 04:43:26;;;;;;;;;16.75;14.00;;;;;10.61;80.33;99820.22;3615575;39;13999;-55
2021/05/21 04:45:55;;;;;;;;;11.00;10.00;;;;;10.79;80.10;99819.13;3616958;39;14023;-54
2021/05/21 04:48:23;;;;;;;;;17.25;14.00;;;;;10.97;77.79;99811.78;3617021;39;14227;-55
2021/05/21 04:50:50;;;;;;;;;13.75;12.25;;;;;11.05;77.95;99814.84;3616475;39;15031;-58
2021/05/21 04:53:18;;;;;;;;;12.75;10.00;;;;;11.17;77.99;99816.78;3617073;39;14198;-55
2021/05/21 04:55:46;;;;;;;;;10.25;9.00;;;;;11.16;78.19;99819.56;3610622;39;14019;-56
2021/05/21 04:58:13;;;;;;;;;14.50;12.00;;;;;11.55;76.54;99818.03;3606410;39;14634;-55
2021/05/21 05:00:41;;;;;;;;;8.00;8.00;;;;;12.43;72.80;99827.53;3614675;39;14031;-55
2021/05/21 05:03:16;;;;;;;;;10.75;8.25;;;;;11.87;75.50;99824.06;3616650;39;13972;-58
2021/05/21 05:05:47;;;;;;;;;15.25;11.00;;;;;11.74;76.93;99820.41;3616056;39;14046;-57
2021/05/21 05:08:15;;;;;;;;;16.25;8.50;;;;;11.89;75.96;99827.50;3615918;39;14020;-55
2021/05/21 05:10:48;;;;;;;;;11.00;9.00;;;;;12.12;74.43;99830.56;3609465;39;14055;-55
2021/05/21 05:13:17;;;;;;;;;10.25;8.50;;;;;12.35;74.15;99832.59;3616275;39;14627;-55
2021/05/21 05:15:45;;;;;;;;;11.00;11.00;;;;;12.32;75.56;99826.53;3615356;39;13022;-57
2021/05/21 05:18:14;;;;;;;;;11.00;9.00;;;;;12.25;75.07;99836.84;3605945;39;14038;-54
2021/05/21 05:20:42;;;;;;;;;8.75;8.00;;;;;12.52;74.16;99832.31;3606281;39;14002;-54
2021/05/21 05:23:11;;;;;;;;;12.50;9.50;;;;;12.57;75.54;99839.22;3606522;39;13952;-55
2021/05/21 05:25:44;;;;;;;;;11.00;11.00;;;;;12.69;74.57;99830.28;3605553;39;13992;-55
2021/05/21 05:28:12;;;;;;;;;11.00;10.25;;;;;13.09;72.03;99828.44;3606603;39;14009;-54
2021/05/21 05:30:40;;;;;;;;;14.00;11.50;;;;;13.52;69.78;99838.03;3615034;39;14031;-53
2021/05/21 05:33:07;;;;;;;;;16.50;16.00;;;;;13.81;68.64;99838.66;3615982;39;14008;-55
2021/05/21 05:35:35;;;;;;;;;19.00;13.25;;;;;13.52;70.13;99835.34;3615818;39;14213;-55
2021/05/21 05:38:02;;;;;;;;;13.50;13.50;;;;;13.72;71.30;99850.13;3595757;39;14546;-56
2021/05/21 05:40:31;;;;;;;;;23.50;19.25;;;;;13.70;71.93;99854.75;3596010;40;14031;-55
2021/05/21 05:42:58;;;;;;;;;26.00;24.00;;;;;13.96;70.40;99847.47;3610929;39;14551;-55
2021/05/21 05:45:26;;;;;;;;;12.75;12.75;;;;;14.21;67.31;99841.13;3595957;40;14090;-55
2021/05/21 05:47:53;;;;;;;;;13.50;10.50;;;;;13.76;70.55;99841.66;3595640;40;14041;-56
2021/05/21 05:50:20;;;;;;;;;17.50;15.00;;;;;13.97;71.06;99833.00;3596321;39;14065;-56
2021/05/21 05:52:48;;;;;;;;;19.25;18.50;;;;;14.38;69.98;99848.84;3609920;39;14540;-55
2021/05/21 05:55:15;;;;;;;;;6.00;3.50;;;;;14.27;68.97;99844.22;3615910;39;14065;-54
2021/05/21 05:57:42;;;;;;;;;17.50;17.00;;;;;14.35;69.39;99846.38;3615894;39;13986;-57
2021/05/21 06:00:11;;;;;;;;;17.25;15.25;;;;;14.71;69.77;99849.97;3615913;39;14070;-56
2021/05/21 06:02:38;;;;;;;;;18.75;15.25;;;;;14.76;66.54;99846.94;3616175;39;14050;-58
2021/05/21 06:05:07;;;;;;;;;15.00;14.75;;;;;14.36;68.77;99839.13;3608874;39;14038;-58
2021/05/21 06:07:34;;;;;;;;;11.00;11.00;;;;;14.90;65.47;99844.03;3605674;39;13992;-58
2021/05/21 06:10:05;;;;;;;;;10.00;10.00;;;;;14.97;65.13;99847.97;3605827;39;14242;-58
2021/05/21 06:12:32;;;;;;;;;13.50;11.25;;;;;14.99;67.07;99851.44;3614714;39;14005;-56
2021/05/21 06:15:00;;;;;;;;;11.50;9.75;;;;;15.03;63.40;99850.22;3616148;39;14486;-54
2021/05/21 06:17:27;;;;;;;;;11.75;10.50;;;;;15.43;65.06;99847.09;3615771;39;13914;-57
2021/05/21 06:19:54;;;;;;;;;10.25;9.50;;;;;15.48;64.70;99842.19;3615620;39;13954;-53
2021/05/21 06:22:22;;;;;;;;;10.50;10.00;;;;;15.43;62.61;99841.69;3615682;39;13927;-57
2021/05/21 06:24:51;;;;;;;;;11.00;9.75;;;;;15.59;62.66;99842.19;3615585;39;13946;-56
2021/05/21 06:27:23;;;;;;;;;11.00;10.50;;;;;15.97;62.71;99848.22;3610750;39;13881;-67
2021/05/21 06:29:51;;;;;;;;;7.00;7.00;;;;;16.51;59.77;99850.09;3609274;39;13863;-56
2021/05/21 06:32:18;;;;;;;;;7.00;7.00;;;;;16.22;59.74;99838.97;3615843;39;14110;-57
2021/05/21 06:34:46;;;;;;;;;6.00;5.50;;;;;16.59;58.81;99846.75;3615725;39;13894;-54
2021/05/21 06:37:23;;;;;;;;;9.50;6.00;;;;;17.16;58.70;99836.47;3607679;39;14418;-56
2021/05/21 06:40:08;;;;;;;;;8.00;6.00;;;;;17.34;56.76;99840.31;3605499;39;13002;-55
2021/05/21 06:42:36;;;;;;;;;6.75;6.75;;;;;17.00;57.26;99845.09;3608944;39;13262;-57
2021/05/21 06:45:05;;;;;;;;;6.25;6.00;;;;;16.96;54.72;99854.50;3610132;39;12908;-57
2021/05/21 06:47:33;;;;;;;;;6.00;5.75;;;;;17.60;54.29;99853.47;3603867;39;13563;-55
2021/05/21 06:50:01;;;;;;;;;5.00;5.00;;;;;17.90;55.74;99841.75;3605462;39;13759;-56
2021/05/21 06:52:28;;;;;;;;;6.25;5.00;;;;;18.01;53.44;99840.78;3609846;39;12636;-55
2021/05/21 06:54:57;;;;;;;;;7.00;5.25;;;;;18.84;51.50;99836.78;3617028;39;13067;-57
2021/05/21 06:57:24;;;;;;;;;9.75;6.00;;;;;18.43;53.55;99830.56;3617100;39;12797;-57
2021/05/21 06:59:52;;;;;;;;;5.00;5.00;;;;;18.11;52.88;99820.78;3610426;39;12391;-56
2021/05/21 07:02:20;;;;;;;;;7.25;5.75;;;;;18.60;53.55;99816.28;3607014;39;12403;-57
2021/05/21 07:04:47;;;;;;;;;7.00;6.00;;;;;17.90;54.57;99826.28;3606917;39;12340;-57
2021/05/21 07:07:14;;;;;;;;;5.00;5.00;;;;;18.99;53.37;99821.72;3607333;39;11931;-56
2021/05/21 07:09:42;;;;;;;;;6.00;5.00;;;;;18.88;53.32;99830.06;3607018;39;11953;-56
2021/05/21 07:12:10;;;;;;;;;6.00;6.00;;;;;19.22;52.80;99832.28;3607682;39;12138;-59
2021/05/21 07:14:37;;;;;;;;;6.50;5.50;;;;;18.97;52.02;99840.06;3606767;39;11553;-57
2021/05/21 07:17:05;;;;;;;;;6.25;5.75;;;;;19.68;52.44;99836.91;3605582;39;11396;-57
2021/05/21 07:19:33;;;;;;;;;6.00;6.00;;;;;19.51;49.58;99846.69;3606315;39;11280;-56
2021/05/21 07:22:07;;;;;;;;;7.50;5.25;;;;;19.81;49.50;99833.00;3606987;39;11730;-57
2021/05/21 07:24:35;;;;;;;;;6.25;5.00;;;;;19.99;49.80;99836.66;3606994;39;11421;-58
2021/05/21 07:27:04;;;;;;;;;5.50;5.00;;;;;19.62;51.44;99842.09;3607332;39;11150;-56
2021/05/21 07:29:32;;;;;;;;;5.50;5.25;;;;;19.57;52.94;99830.78;3607139;39;11278;-57
2021/05/21 07:32:00;;;;;;;;;8.00;6.00;;;;;20.13;48.15;99827.94;3607906;39;11252;-57
2021/05/21 07:34:27;;;;;;;;;5.25;5.25;;;;;19.69;50.79;99830.44;3612306;39;11007;-57
2021/05/21 07:36:55;;;;;;;;;4.00;4.00;;;;;20.01;47.25;99828.31;3607374;39;11145;-57
2021/05/21 07:39:23;;;;;;;;;4.00;4.00;;;;;19.78;47.05;99826.00;3606663;39;11606;-56
2021/05/21 07:41:54;;;;;;;;;4.00;3.50;;;;;20.36;46.18;99825.66;3606968;39;10891;-57
2021/05/21 07:44:22;;;;;;;;;6.50;4.75;;;;;19.92;49.26;99820.03;3607175;39;10667;-57
2021/05/21 07:46:51;;;;;;;;;5.25;5.25;;;;;19.56;46.26;99835.34;3606733;39;10597;-56
2021/05/21 07:49:22;;;;;;;;;3.00;3.00;;;;;20.27;44.05;99826.56;3606617;39;10504;-56
2021/05/21 07:51:53;;;;;;;;;4.00;4.00;;;;;19.93;44.51;99824.50;3606648;39;10343;-57
2021/05/21 07:54:21;;;;;;;;;4.50;4.50;;;;;19.99;42.74;99827.63;3606600;39;10795;-57
2021/05/21 07:56:49;;;;;;;;;4.50;4.50;;;;;20.05;44.64;99830.59;3606991;39;10415;-55
2021/05/21 07:59:17;;;;;;;;;8.50;5.75;;;;;19.61;45.57;99829.47;3605824;39;10866;-55
2021/05/21 08:01:45;;;;;;;;;6.25;3.75;;;;;19.84;44.07;99811.75;3605309;39;11020;-54
2021/05/21 08:04:12;;;;;;;;;5.75;5.75;;;;;19.80;47.63;99817.66;3605667;39;10651;-55
2021/05/21 08:06:41;;;;;;;;;5.00;4.50;;;;;19.90;46.56;99813.88;3607898;39;11306;-55
2021/05/21 08:09:09;;;;;;;;;5.75;5.75;;;;;19.98;47.88;99821.28;3613630;39;10866;-55
2021/05/21 08:11:37;;;;;;;;;5.00;5.00;;;;;20.26;45.09;99816.69;3606264;39;10886;-56
2021/05/21 08:14:08;;;;;;;;;4.50;4.50;;;;;19.94;46.39;99818.00;3604109;39;10860;-53
2021/05/21 08:16:36;;;;;;;;;8.25;6.25;;;;;19.93;45.77;99821.75;3606006;39;10480;-57
2021/05/21 08:19:04;;;;;;;;;5.00;5.00;;;;;20.02;47.33;99822.72;3606445;39;11136;-57
2021/05/21 08:21:32;;;;;;;;;5.00;5.00;;;;;20.02;45.40;99824.59;3606380;39;10949;-58
2021/05/21 08:24:00;;;;;;;;;6.00;4.75;;;;;20.45;45.08;99809.38;3607234;39;10832;-58
2021/05/21 08:26:29;;;;;;;;;6.00;6.00;;;;;20.68;46.49;99805.19;3607770;39;10827;-58
2021/05/21 08:28:58;;;;;;;;;5.00;4.75;;;;;20.09;46.36;99810.19;3606703;39;11005;-57
2021/05/21 08:31:26;;;;;;;;;5.00;4.50;;;;;20.37;45.74;99813.72;3605484;39;10593;-57
2021/05/21 08:33:53;;;;;;;;;4.00;4.00;;;;;20.67;44.82;99808.97;3605557;39;10883;-58
2021/05/21 08:36:21;;;;;;;;;4.00;4.00;;;;;20.37;43.48;99805.53;3605644;39;10591;-56
2021/05/21 08:38:50;;;;;;;;;3.50;3.50;;;;;20.03;42.57;99808.06;3605805;39;10304;-58
2021/05/21 08:41:23;;;;;;;;;4.75;4.00;;;;;20.43;43.38;99811.38;3605938;39;10342;-58
2021/05/21 08:43:53;;;;;;;;;3.00;3.00;;;;;19.78;45.59;99806.91;3605230;39;11012;-57
2021/05/21 08:46:23;;;;;;;;;4.25;4.00;;;;;19.84;46.64;99811.75;3604141;39;11062;-58
2021/05/21 08:48:50;;;;;;;;;7.00;6.00;;;;;20.13;44.99;99810.75;3604632;39;11152;-58
2021/05/21 08:51:18;;;;;;;;;6.25;6.00;;;;;20.05;46.23;99805.19;3605878;39;11132;-60
2021/05/21 08:53:50;;;;;;;;;6.50;5.50;;;;;20.18;47.58;99808.41;3605481;39;12127;-60
2021/05/21 08:56:18;;;;;;;;;5.75;5.25;;;;;20.31;47.51;99808.03;3605551;39;10991;-58
2021/05/21 08:58:45;;;;;;;;;7.00;6.00;;;;;20.00;46.94;99810.25;3605710;39;11411;-59
2021/05/21 09:01:13;;;;;;;;;5.25;5.00;;;;;19.93;46.74;99813.59;3605153;39;11298;-59
2021/05/21 09:03:40;;;;;;;;;6.00;6.00;;;;;19.80;46.49;99815.81;3605473;39;12185;-59
2021/05/21 09:06:17;;;;;;;;;9.50;7.50;;;;;20.41;46.60;99803.38;3605446;39;11817;-59
2021/05/21 09:08:56;;;;;;;;;8.25;6.75;;;;;20.55;46.83;99791.94;3605623;39;11401;-59
2021/05/21 09:11:27;;;;;;;;;6.00;6.00;;;;;20.59;47.08;99787.06;3605458;39;11145;-60
2021/05/21 09:14:21;;;;;;;;;4.00;4.00;;;;;20.72;43.73;99775.72;3605132;39;10877;-60
2021/05/21 09:16:49;;;;;;;;;4.75;4.00;;;;;20.47;44.89;99782.81;3598186;39;11403;-59
2021/05/21 09:19:18;;;;;;;;;5.00;5.00;;;;;20.20;44.83;99787.31;3604994;39;10917;-60
2021/05/21 09:22:06;;;;;;;;;4.75;4.75;;;;;20.24;44.21;99780.53;3612927;39;10889;-60
2021/05/21 09:24:45;;;;;;;;;5.00;5.00;;;;;21.32;44.56;99774.97;3605891;39;10429;-59
2021/05/21 09:27:15;;;;;;;;;4.00;4.00;;;;;20.96;42.93;99773.22;3605181;39;11066;-60
2021/05/21 09:29:52;;;;;;;;;5.50;4.00;;;;;20.43;44.63;99779.50;3603717;39;10617;-59
2021/05/21 09:32:33;;;;;;;;;3.00;3.00;;;;;20.81;45.18;99778.38;3611008;39;10470;-60
2021/05/21 09:35:12;;;;;;;;;4.25;4.25;;;;;20.65;43.94;99777.38;3605709;39;10789;-60
2021/05/21 09:37:47;;;;;;;;;4.00;4.00;;;;;20.65;43.38;99778.22;3605362;39;11110;-60
2021/05/21 09:40:19;;;;;;;;;4.67;3.33;;;;;20.46;42.74;99773.78;3604417;39;10370;-61
2021/05/21 09:43:00;;;;;;;;;5.50;4.00;;;;;20.56;41.25;99774.59;3612490;39;10892;-59
2021/05/21 09:45:36;;;;;;;;;4.00;4.00;;;;;20.72;45.77;99779.34;3605045;39;10497;-59
2021/05/21 09:48:10;;;;;;;;;4.00;4.00;;;;;21.05;45.83;99774.13;3606029;39;10840;-59
2021/05/21 09:50:50;;;;;;;;;5.00;4.00;;;;;20.20;43.15;99770.94;3602288;39;10826;-58
2021/05/21 09:53:26;;;;;;;;;5.00;5.00;;;;;20.32;44.95;99763.38;3604197;39;10716;-58
2021/05/21 09:56:05;;;;;;;;;5.75;5.75;;;;;20.29;46.87;99769.16;3604086;39;10698;-59
2021/05/21 09:58:47;;;;;;;;;6.50;5.00;;;;;20.69;47.55;99760.53;3605022;39;11513;-59
2021/05/21 10:01:21;;;;;;;;;5.00;5.00;;;;;19.11;46.80;99764.41;3604680;39;11662;-58
2021/05/21 10:03:53;;;;;;;;;6.00;4.75;;;;;20.05;48.84;99761.59;3605941;39;11141;-59
2021/05/21 10:06:27;;;;;;;;;4.25;3.25;;;;;21.03;45.49;99759.75;3605867;39;11130;-59
2021/05/21 10:08:56;;;;;;;;;4.50;3.25;;;;;21.03;46.77;99757.88;3605146;39;11136;-60
2021/05/21 10:11:24;;;;;;;;;7.00;4.00;;;;;20.75;45.52;99759.06;3605929;39;10853;-59
2021/05/21 10:13:52;;;;;;;;;4.25;3.00;;;;;20.73;44.05;99759.19;3605651;39;10823;-58
2021/05/21 10:16:21;;;;;;;;;2.50;2.25;;;;;20.70;43.76;99754.06;3605966;39;11156;-60
2021/05/21 10:18:51;;;;;;;;;3.00;2.50;;;;;20.23;42.78;99745.25;3605802;39;10611;-59
2021/05/21 10:21:21;;;;;;;;;4.25;3.50;;;;;20.65;45.99;99744.66;3606221;39;10651;-59
2021/05/21 10:24:00;;;;;;;;;3.50;3.50;;;;;20.75;44.91;99746.25;3605890;39;10942;-60
2021/05/21 10:26:40;;;;;;;;;4.00;4.00;;;;;20.63;48.45;99752.97;3606475;39;10879;-60
2021/05/21 10:29:12;;;;;;;;;5.00;4.00;;;;;21.18;46.50;99749.13;3607711;39;11180;-60
2021/05/21 10:31:40;;;;;;;;;4.25;3.75;;;;;21.10;44.61;99744.47;3606872;39;10305;-60
2021/05/21 10:34:14;;;;;;;;;4.50;3.00;;;;;21.01;44.00;99739.94;3607836;39;10367;-60
2021/05/21 10:36:42;;;;;;;;;3.00;3.00;;;;;20.70;45.40;99737.69;3607158;39;10905;-60
2021/05/21 10:39:18;;;;;;;;;3.75;3.75;;;;;20.62;44.00;99734.91;3606559;39;10562;-59
2021/05/21 10:41:59;;;;;;;;;5.00;3.00;;;;;20.76;44.47;99725.28;3603308;39;10596;-59
2021/05/21 10:44:28;;;;;;;;;3.00;2.00;;;;;20.57;44.93;99724.47;3607693;39;10524;-60
2021/05/21 10:47:22;;;;;;;;;3.00;3.00;;;;;21.37;45.41;99723.44;3607360;39;10686;-60
2021/05/21 10:49:53;;;;;;;;;3.00;3.00;;;;;20.98;44.22;99726.63;3603834;39;10147;-59
2021/05/21 10:52:22;;;;;;;;;3.00;3.00;;;;;20.70;43.30;99720.47;3607140;39;10365;-61
2021/05/21 10:54:51;;;;;;;;;3.00;3.00;;;;;20.85;44.57;99707.94;3596717;39;10335;-61
2021/05/21 10:57:26;;;;;;;;;6.00;3.00;;;;;21.33;44.61;99711.13;3607630;39;10185;-60
2021/05/21 11:00:00;;;;;;;;;5.00;4.00;;;;;21.51;46.82;99702.88;3607073;39;10307;-59
2021/05/21 11:02:52;;;;;;;;;5.00;4.00;;;;;21.09;45.77;99698.19;3607165;39;10494;-59
2021/05/21 11:05:32;;;;;;;;;4.00;4.00;;;;;21.03;47.76;99700.53;3607268;39;10635;-59
2021/05/21 11:08:12;;;;;;;;;4.00;4.00;;;;;20.89;46.24;99692.13;3605415;39;10318;-60
2021/05/21 11:10:45;;;;;;;;;4.00;3.25;;;;;20.91;45.84;99698.28;3606727;39;10365;-60
2021/05/21 11:13:16;;;;;;;;;4.75;3.00;;;;;20.81;44.72;99701.09;3607579;39;10526;-60
2021/05/21 11:15:51;;;;;;;;;3.00;3.00;;;;;20.31;46.99;99678.00;3605650;39;10330;-60
2021/05/21 11:18:19;;;;;;;;;3.75;3.75;;;;;19.79;47.96;99677.84;3604332;39;10851;-60
2021/05/21 11:21:04;;;;;;;;;5.00;3.50;;;;;20.90;47.98;99689.22;3612132;39;10559;-60
2021/05/21 11:24:06;;;;;;;;;3.50;3.00;;;;;20.21;48.90;99666.31;3600450;39;11207;-59
2021/05/21 11:26:41;;;;;;;;;4.25;4.00;;;;;20.92;47.77;99675.41;3603879;39;10465;-62
2021/05/21 11:29:09;;;;;;;;;4.00;4.00;;;;;20.65;45.84;99674.56;3614067;39;10753;-59
2021/05/21 11:31:37;;;;;;;;;4.00;3.50;;;;;20.20;47.96;99663.78;3608096;39;10592;-59
2021/05/21 11:34:09;;;;;;;;;5.00;5.00;;;;;20.17;46.60;99660.34;3607551;39;10857;-59
2021/05/21 11:36:38;;;;;;;;;5.75;4.50;;;;;20.61;45.88;99662.25;3607247;39;11523;-59
2021/05/21 11:39:06;;;;;;;;;2.50;2.25;;;;;21.62;45.67;99678.84;3615182;39;10742;-59
2021/05/21 11:41:37;;;;;;;;;3.00;3.00;;;;;21.14;43.79;99666.66;3608783;39;10595;-59
2021/05/21 11:44:09;;;;;;;;;3.00;3.00;;;;;20.83;43.94;99666.31;3611532;39;10214;-59